sensor_id;sensor_type;location;lat;lon;timestamp;pressure;altitude;pressure_sealevel;temperature;humidity
70589;BME280;58152;49.202;18.744;2022-11-15T00:05:33;97740.03;;;4.23;66.55
70589;BME280;58152;49.202;18.744;2022-11-15T00:08:21;97740.03;;;4.21;66.35
70589;BME280;58152;49.202;18.744;2022-11-15T00:11:17;97743.47;;;4.26;67.18
70589;BME280;58152;49.202;18.744;2022-11-15T00:13:43;97738.34;;;4.22;67.34
70589;BME280;58152;49.202;18.744;2022-11-15T00:16:08;97740.94;;;4.22;67.62
70589;BME280;58152;49.202;18.744;2022-11-15T00:18:34;97742.66;;;4.20;67.14
70589;BME280;58152;49.202;18.744;2022-11-15T00:21:06;97739.19;;;4.21;67.16
70589;BME280;58152;49.202;18.744;2022-11-15T00:23:33;97735.78;;;4.17;67.64
70589;BME280;58152;49.202;18.744;2022-11-15T00:25:59;97745.31;;;4.18;67.31
70589;BME280;58152;49.202;18.744;2022-11-15T00:28:25;97739.31;;;4.13;67.82
70589;BME280;58152;49.202;18.744;2022-11-15T00:30:51;97738.44;;;4.14;67.63
70589;BME280;58152;49.202;18.744;2022-11-15T00:33:19;97728.94;;;4.12;67.76
70589;BME280;58152;49.202;18.744;2022-11-15T00:35:44;97727.25;;;4.09;67.81
70589;BME280;58152;49.202;18.744;2022-11-15T00:38:10;97737.59;;;4.11;67.89
70589;BME280;58152;49.202;18.744;2022-11-15T00:40:35;97728.09;;;4.10;67.97
70589;BME280;58152;49.202;18.744;2022-11-15T00:43:01;97723.00;;;4.03;68.13
70589;BME280;58152;49.202;18.744;2022-11-15T00:45:26;97734.25;;;4.02;68.26
70589;BME280;58152;49.202;18.744;2022-11-15T00:47:52;97724.78;;;4.00;68.38
70589;BME280;58152;49.202;18.744;2022-11-15T00:50:18;97734.31;;;3.99;68.26
70589;BME280;58152;49.202;18.744;2022-11-15T00:52:44;97723.06;;;3.97;68.04
70589;BME280;58152;49.202;18.744;2022-11-15T00:55:14;97721.34;;;3.96;68.34
70589;BME280;58152;49.202;18.744;2022-11-15T00:57:40;97726.56;;;3.93;68.31
70589;BME280;58152;49.202;18.744;2022-11-15T01:00:06;97717.09;;;3.91;68.52
70589;BME280;58152;49.202;18.744;2022-11-15T01:02:32;97718.84;;;3.89;68.52
70589;BME280;58152;49.202;18.744;2022-11-15T01:04:58;97711.91;;;3.89;68.02
70589;BME280;58152;49.202;18.744;2022-11-15T01:07:23;97716.31;;;3.86;68.69
70589;BME280;58152;49.202;18.744;2022-11-15T01:09:49;97717.13;;;3.88;68.44
70589;BME280;58152;49.202;18.744;2022-11-15T01:12:14;97708.47;;;3.90;68.39
70589;BME280;58152;49.202;18.744;2022-11-15T01:14:39;97718.00;;;3.88;68.55
70589;BME280;58152;49.202;18.744;2022-11-15T01:17:05;97714.56;;;3.86;68.20
70589;BME280;58152;49.202;18.744;2022-11-15T01:19:30;97715.44;;;3.83;68.43
70589;BME280;58152;49.202;18.744;2022-11-15T01:21:56;97709.44;;;3.80;68.35
70589;BME280;58152;49.202;18.744;2022-11-15T01:24:21;97706.88;;;3.78;68.49
70589;BME280;58152;49.202;18.744;2022-11-15T01:26:47;97712.09;;;3.77;68.62
70589;BME280;58152;49.202;18.744;2022-11-15T01:29:12;97707.78;;;3.76;68.87
70589;BME280;58152;49.202;18.744;2022-11-15T01:31:38;97711.25;;;3.75;68.50
70589;BME280;58152;49.202;18.744;2022-11-15T01:34:03;97704.38;;;3.72;68.94
70589;BME280;58152;49.202;18.744;2022-11-15T01:36:28;97703.50;;;3.70;68.67
70589;BME280;58152;49.202;18.744;2022-11-15T01:38:56;97712.19;;;3.69;69.03
70589;BME280;58152;49.202;18.744;2022-11-15T01:41:26;97703.56;;;3.67;68.69
70589;BME280;58152;49.202;18.744;2022-11-15T01:43:53;97697.53;;;3.67;68.86
70589;BME280;58152;49.202;18.744;2022-11-15T01:46:35;97700.97;;;3.66;69.25
70589;BME280;58152;49.202;18.744;2022-11-15T01:49:05;97700.13;;;3.67;69.18
70589;BME280;58152;49.202;18.744;2022-11-15T01:51:36;97696.69;;;3.63;69.13
70589;BME280;58152;49.202;18.744;2022-11-15T01:54:09;97697.53;;;3.65;68.85
70589;BME280;58152;49.202;18.744;2022-11-15T01:56:42;97695.81;;;3.64;68.99
70589;BME280;58152;49.202;18.744;2022-11-15T01:59:10;97686.28;;;3.65;69.13
70589;BME280;58152;49.202;18.744;2022-11-15T02:01:36;97688.84;;;3.66;69.01
70589;BME280;58152;49.202;18.744;2022-11-15T02:04:07;97680.28;;;3.61;69.18
70589;BME280;58152;49.202;18.744;2022-11-15T02:06:36;97685.47;;;3.63;69.48
70589;BME280;58152;49.202;18.744;2022-11-15T02:09:02;97685.47;;;3.63;69.68
70589;BME280;58152;49.202;18.744;2022-11-15T02:11:28;97679.41;;;3.61;69.26
70589;BME280;58152;49.202;18.744;2022-11-15T02:13:54;97682.91;;;3.60;69.73
70589;BME280;58152;49.202;18.744;2022-11-15T02:16:43;97672.53;;;3.56;70.13
70589;BME280;58152;49.202;18.744;2022-11-15T02:30:38;97677.78;;;3.52;70.33
70589;BME280;58152;49.202;18.744;2022-11-15T02:36:00;97671.81;;;3.48;70.53
70589;BME280;58152;49.202;18.744;2022-11-15T02:38:52;97669.22;;;3.48;70.36
70589;BME280;58152;49.202;18.744;2022-11-15T02:41:27;97670.09;;;3.46;70.29
70589;BME280;58152;49.202;18.744;2022-11-15T02:44:01;97666.66;;;3.45;70.60
70589;BME280;58152;49.202;18.744;2022-11-15T02:46:45;97661.47;;;3.42;70.67
70589;BME280;58152;49.202;18.744;2022-11-15T02:49:33;97658.88;;;3.44;70.63
70589;BME280;58152;49.202;18.744;2022-11-15T02:52:00;97652.03;;;3.40;70.67
70589;BME280;58152;49.202;18.744;2022-11-15T02:54:29;97656.28;;;3.42;70.42
70589;BME280;58152;49.202;18.744;2022-11-15T02:57:14;97646.81;;;3.41;70.45
70589;BME280;58152;49.202;18.744;2022-11-15T03:07:27;97654.56;;;3.43;70.18
70589;BME280;58152;49.202;18.744;2022-11-15T03:10:06;97645.13;;;3.37;70.25
70589;BME280;58152;49.202;18.744;2022-11-15T03:12:40;97654.59;;;3.41;70.41
70589;BME280;58152;49.202;18.744;2022-11-15T03:15:18;97646.84;;;3.37;70.17
70589;BME280;58152;49.202;18.744;2022-11-15T03:17:55;97645.97;;;3.39;70.35
70589;BME280;58152;49.202;18.744;2022-11-15T03:20:22;97649.44;;;3.40;71.22
70589;BME280;58152;49.202;18.744;2022-11-15T03:22:49;97645.16;;;3.34;71.01
70589;BME280;58152;49.202;18.744;2022-11-15T03:25:24;97652.94;;;3.34;70.97
70589;BME280;58152;49.202;18.744;2022-11-15T03:27:54;97646.03;;;3.33;71.35
70589;BME280;58152;49.202;18.744;2022-11-15T03:30:21;97649.50;;;3.32;71.04
70589;BME280;58152;49.202;18.744;2022-11-15T03:32:54;97648.63;;;3.33;71.10
70589;BME280;58152;49.202;18.744;2022-11-15T03:35:23;97646.88;;;3.34;71.27
70589;BME280;58152;49.202;18.744;2022-11-15T03:40:42;97633.91;;;3.35;71.57
70589;BME280;58152;49.202;18.744;2022-11-15T03:46:02;97634.78;;;3.34;71.31
70589;BME280;58152;49.202;18.744;2022-11-15T03:48:34;97623.56;;;3.32;71.36
70589;BME280;58152;49.202;18.744;2022-11-15T03:51:02;97624.47;;;3.31;71.33
70589;BME280;58152;49.202;18.744;2022-11-15T03:53:29;97633.13;;;3.30;71.18
70589;BME280;58152;49.202;18.744;2022-11-15T03:55:56;97630.53;;;3.30;71.53
70589;BME280;58152;49.202;18.744;2022-11-15T03:58:21;97627.97;;;3.27;71.39
70589;BME280;58152;49.202;18.744;2022-11-15T04:00:46;97621.06;;;3.24;71.50
70589;BME280;58152;49.202;18.744;2022-11-15T04:03:12;97615.94;;;3.21;71.49
70589;BME280;58152;49.202;18.744;2022-11-15T04:05:37;97603.81;;;3.20;71.32
70589;BME280;58152;49.202;18.744;2022-11-15T04:08:03;97609.88;;;3.21;71.43
70589;BME280;58152;49.202;18.744;2022-11-15T04:10:28;97607.28;;;3.19;71.49
70589;BME280;58152;49.202;18.744;2022-11-15T04:12:54;97603.81;;;3.22;71.64
70589;BME280;58152;49.202;18.744;2022-11-15T04:15:22;97600.31;;;3.24;71.42
70589;BME280;58152;49.202;18.744;2022-11-15T04:17:50;97595.13;;;3.24;71.35
70589;BME280;58152;49.202;18.744;2022-11-15T04:20:30;97594.28;;;3.24;71.34
70589;BME280;58152;49.202;18.744;2022-11-15T04:23:15;97591.69;;;3.24;71.68
70589;BME280;58152;49.202;18.744;2022-11-15T04:26:02;97596.88;;;3.24;71.38
70589;BME280;58152;49.202;18.744;2022-11-15T04:28:28;97582.22;;;3.21;71.70
70589;BME280;58152;49.202;18.744;2022-11-15T04:30:54;97592.59;;;3.20;71.81
70589;BME280;58152;49.202;18.744;2022-11-15T04:33:20;97589.16;;;3.19;71.46
70589;BME280;58152;49.202;18.744;2022-11-15T04:35:46;97585.72;;;3.17;71.66
70589;BME280;58152;49.202;18.744;2022-11-15T04:38:31;97587.47;;;3.15;71.86
70589;BME280;58152;49.202;18.744;2022-11-15T04:40:57;97578.84;;;3.15;71.96
70589;BME280;58152;49.202;18.744;2022-11-15T04:43:22;97574.56;;;3.11;71.67
70589;BME280;58152;49.202;18.744;2022-11-15T04:45:48;97572.03;;;3.08;72.11
70589;BME280;58152;49.202;18.744;2022-11-15T04:48:13;97576.31;;;3.12;72.14
70589;BME280;58152;49.202;18.744;2022-11-15T04:50:39;97576.25;;;3.13;71.97
70589;BME280;58152;49.202;18.744;2022-11-15T04:53:04;97581.44;;;3.13;71.95
70589;BME280;58152;49.202;18.744;2022-11-15T04:55:29;97575.41;;;3.13;72.18
70589;BME280;58152;49.202;18.744;2022-11-15T04:57:59;97573.66;;;3.15;71.97
70589;BME280;58152;49.202;18.744;2022-11-15T05:00:26;97570.19;;;3.14;72.26
70589;BME280;58152;49.202;18.744;2022-11-15T05:02:52;97568.50;;;3.13;71.91
70589;BME280;58152;49.202;18.744;2022-11-15T05:05:36;97570.16;;;3.16;72.08
70589;BME280;58152;49.202;18.744;2022-11-15T05:08:02;97558.97;;;3.14;72.00
70589;BME280;58152;49.202;18.744;2022-11-15T05:10:27;97565.88;;;3.15;72.01
70589;BME280;58152;49.202;18.744;2022-11-15T05:12:53;97552.94;;;3.13;71.83
70589;BME280;58152;49.202;18.744;2022-11-15T05:15:18;97555.56;;;3.12;72.20
70589;BME280;58152;49.202;18.744;2022-11-15T05:17:44;97545.16;;;3.13;72.11
70589;BME280;58152;49.202;18.744;2022-11-15T05:20:10;97547.78;;;3.10;72.15
70589;BME280;58152;49.202;18.744;2022-11-15T05:22:35;97551.19;;;3.14;72.16
70589;BME280;58152;49.202;18.744;2022-11-15T05:25:01;97544.28;;;3.14;72.28
70589;BME280;58152;49.202;18.744;2022-11-15T05:27:26;97546.91;;;3.13;72.41
70589;BME280;58152;49.202;18.744;2022-11-15T05:29:52;97545.16;;;3.13;72.15
70589;BME280;58152;49.202;18.744;2022-11-15T05:32:17;97539.97;;;3.13;72.39
70589;BME280;58152;49.202;18.744;2022-11-15T05:34:43;97535.59;;;3.15;72.44
70589;BME280;58152;49.202;18.744;2022-11-15T05:37:09;97542.56;;;3.13;72.52
70589;BME280;58152;49.202;18.744;2022-11-15T05:39:35;97539.94;;;3.16;72.65
70589;BME280;58152;49.202;18.744;2022-11-15T05:42:14;97533.88;;;3.17;72.44
70589;BME280;58152;49.202;18.744;2022-11-15T05:44:43;97527.84;;;3.17;72.77
70589;BME280;58152;49.202;18.744;2022-11-15T05:47:14;97527.81;;;3.18;72.48
70589;BME280;58152;49.202;18.744;2022-11-15T05:49:42;97532.13;;;3.18;72.65
70589;BME280;58152;49.202;18.744;2022-11-15T05:52:11;97525.25;;;3.15;72.81
70589;BME280;58152;49.202;18.744;2022-11-15T05:54:37;97525.25;;;3.17;72.53
70589;BME280;58152;49.202;18.744;2022-11-15T05:57:04;97531.28;;;3.16;72.69
70589;BME280;58152;49.202;18.744;2022-11-15T05:59:31;97531.34;;;3.13;72.47
70589;BME280;58152;49.202;18.744;2022-11-15T06:01:57;97529.63;;;3.10;72.54
70589;BME280;58152;49.202;18.744;2022-11-15T06:04:22;97534.81;;;3.12;72.51
70589;BME280;58152;49.202;18.744;2022-11-15T06:06:48;97525.31;;;3.09;72.38
70589;BME280;58152;49.202;18.744;2022-11-15T06:09:13;97522.72;;;3.11;72.67
70589;BME280;58152;49.202;18.744;2022-11-15T06:11:39;97521.03;;;3.08;72.57
70589;BME280;58152;49.202;18.744;2022-11-15T06:14:04;97521.84;;;3.12;72.48
70589;BME280;58152;49.202;18.744;2022-11-15T06:16:30;97515.78;;;3.11;72.59
70589;BME280;58152;49.202;18.744;2022-11-15T06:18:55;97517.50;;;3.14;72.76
70589;BME280;58152;49.202;18.744;2022-11-15T06:21:21;97519.19;;;3.15;72.50
70589;BME280;58152;49.202;18.744;2022-11-15T06:23:46;97525.25;;;3.15;72.39
70589;BME280;58152;49.202;18.744;2022-11-15T06:26:12;97515.75;;;3.14;72.64
70589;BME280;58152;49.202;18.744;2022-11-15T06:28:37;97511.41;;;3.15;72.58
70589;BME280;58152;49.202;18.744;2022-11-15T06:31:04;97520.91;;;3.16;72.62
70589;BME280;58152;49.202;18.744;2022-11-15T06:33:30;97512.31;;;3.14;72.70
70589;BME280;58152;49.202;18.744;2022-11-15T06:36:00;97520.91;;;3.17;72.45
70589;BME280;58152;49.202;18.744;2022-11-15T06:38:26;97519.16;;;3.18;72.64
70589;BME280;58152;49.202;18.744;2022-11-15T06:40:51;97518.28;;;3.19;72.79
70589;BME280;58152;49.202;18.744;2022-11-15T06:43:32;97520.84;;;3.20;72.62
70589;BME280;58152;49.202;18.744;2022-11-15T06:46:07;97525.19;;;3.20;72.86
70589;BME280;58152;49.202;18.744;2022-11-15T06:48:36;97519.13;;;3.21;72.97
70589;BME280;58152;49.202;18.744;2022-11-15T06:51:07;97520.88;;;3.19;72.70
70589;BME280;58152;49.202;18.744;2022-11-15T06:53:36;97523.44;;;3.22;72.61
70589;BME280;58152;49.202;18.744;2022-11-15T06:56:06;97521.66;;;3.24;72.80
70589;BME280;58152;49.202;18.744;2022-11-15T06:58:33;97515.63;;;3.23;72.46
70589;BME280;58152;49.202;18.744;2022-11-15T07:01:04;97523.34;;;3.28;72.77
70589;BME280;58152;49.202;18.744;2022-11-15T07:03:53;97515.63;;;3.23;72.99
70589;BME280;58152;49.202;18.744;2022-11-15T07:06:24;97519.84;;;3.32;72.46
70589;BME280;58152;49.202;18.744;2022-11-15T07:08:49;97518.94;;;3.33;72.84
70589;BME280;58152;49.202;18.744;2022-11-15T07:11:15;97505.09;;;3.34;72.94
70589;BME280;58152;49.202;18.744;2022-11-15T07:13:40;97517.22;;;3.35;73.14
70589;BME280;58152;49.202;18.744;2022-11-15T07:16:09;97506.78;;;3.38;73.05
70589;BME280;58152;49.202;18.744;2022-11-15T07:18:36;97509.31;;;3.41;73.27
70589;BME280;58152;49.202;18.744;2022-11-15T07:21:07;97513.59;;;3.45;72.85
70589;BME280;58152;49.202;18.744;2022-11-15T07:23:36;97501.50;;;3.44;72.70
70589;BME280;58152;49.202;18.744;2022-11-15T07:26:02;97497.16;;;3.46;72.89
70589;BME280;58152;49.202;18.744;2022-11-15T07:28:28;97497.09;;;3.49;73.07
70589;BME280;58152;49.202;18.744;2022-11-15T07:30:54;97495.34;;;3.53;73.00
70589;BME280;58152;49.202;18.744;2022-11-15T07:33:19;97492.66;;;3.56;72.70
70589;BME280;58152;49.202;18.744;2022-11-15T07:35:45;97493.56;;;3.55;73.20
70589;BME280;58152;49.202;18.744;2022-11-15T07:38:13;97484.88;;;3.58;73.35
70589;BME280;58152;49.202;18.744;2022-11-15T07:40:45;97483.13;;;3.60;73.71
70589;BME280;58152;49.202;18.744;2022-11-15T07:43:10;97484.84;;;3.59;73.69
70589;BME280;58152;49.202;18.744;2022-11-15T07:45:44;97495.13;;;3.65;73.03
70589;BME280;58152;49.202;18.744;2022-11-15T07:48:09;97482.22;;;3.61;73.53
70589;BME280;58152;49.202;18.744;2022-11-15T07:50:35;97482.19;;;3.64;73.68
70589;BME280;58152;49.202;18.744;2022-11-15T07:53:07;97488.19;;;3.67;73.41
70589;BME280;58152;49.202;18.744;2022-11-15T07:55:32;97491.63;;;3.68;73.29
70589;BME280;58152;49.202;18.744;2022-11-15T07:58:02;97485.53;;;3.70;73.22
70589;BME280;58152;49.202;18.744;2022-11-15T08:00:28;97486.34;;;3.74;73.49
70589;BME280;58152;49.202;18.744;2022-11-15T08:05:29;97482.78;;;3.79;73.41
70589;BME280;58152;49.202;18.744;2022-11-15T08:07:58;97475.03;;;3.78;73.55
70589;BME280;58152;49.202;18.744;2022-11-15T08:10:24;97468.91;;;3.82;73.68
70589;BME280;58152;49.202;18.744;2022-11-15T08:13:04;97471.44;;;3.87;73.55
70589;BME280;58152;49.202;18.744;2022-11-15T08:15:34;97475.66;;;3.92;73.64
70589;BME280;58152;49.202;18.744;2022-11-15T08:18:03;97468.75;;;3.91;73.99
70589;BME280;58152;49.202;18.744;2022-11-15T08:20:29;97465.22;;;3.94;73.88
70589;BME280;58152;49.202;18.744;2022-11-15T08:22:59;97466.03;;;3.97;73.88
70589;BME280;58152;49.202;18.744;2022-11-15T08:25:26;97466.03;;;3.97;74.34
70589;BME280;58152;49.202;18.744;2022-11-15T08:27:58;97476.25;;;4.08;74.29
70589;BME280;58152;49.202;18.744;2022-11-15T08:30:24;97470.19;;;4.09;73.89
70589;BME280;58152;49.202;18.744;2022-11-15T08:32:51;97468.31;;;4.16;74.00
70589;BME280;58152;49.202;18.744;2022-11-15T08:35:18;97458.81;;;4.15;73.90
70589;BME280;58152;49.202;18.744;2022-11-15T08:37:44;97455.31;;;4.17;73.74
70589;BME280;58152;49.202;18.744;2022-11-15T08:40:09;97452.66;;;4.20;73.51
70589;BME280;58152;49.202;18.744;2022-11-15T08:42:36;97462.91;;;4.28;73.58
70589;BME280;58152;49.202;18.744;2022-11-15T08:45:02;97447.31;;;4.28;73.68
70589;BME280;58152;49.202;18.744;2022-11-15T08:47:28;97455.84;;;4.36;73.66
70589;BME280;58152;49.202;18.744;2022-11-15T08:49:53;97452.31;;;4.39;73.79
70589;BME280;58152;49.202;18.744;2022-11-15T08:52:19;97455.66;;;4.44;73.52
70589;BME280;58152;49.202;18.744;2022-11-15T08:54:44;97450.38;;;4.50;73.38
70589;BME280;58152;49.202;18.744;2022-11-15T08:57:10;97451.13;;;4.53;73.86
70589;BME280;58152;49.202;18.744;2022-11-15T08:59:36;97440.66;;;4.58;73.88
70589;BME280;58152;49.202;18.744;2022-11-15T09:02:02;97444.81;;;4.67;73.61
70589;BME280;58152;49.202;18.744;2022-11-15T09:04:28;97442.06;;;4.74;74.40
70589;BME280;58152;49.202;18.744;2022-11-15T09:06:54;97443.72;;;4.78;74.40
70589;BME280;58152;49.202;18.744;2022-11-15T09:09:19;97449.63;;;4.85;74.18
70589;BME280;58152;49.202;18.744;2022-11-15T09:11:45;97449.63;;;4.85;74.29
70589;BME280;58152;49.202;18.744;2022-11-15T09:14:12;97446.13;;;4.88;74.21
70589;BME280;58152;49.202;18.744;2022-11-15T09:16:40;97448.63;;;4.92;73.96
70589;BME280;58152;49.202;18.744;2022-11-15T09:19:06;97443.38;;;4.95;73.78
70589;BME280;58152;49.202;18.744;2022-11-15T09:21:32;97455.44;;;4.98;73.81
70589;BME280;58152;49.202;18.744;2022-11-15T09:23:58;97444.03;;;5.03;74.34
70589;BME280;58152;49.202;18.744;2022-11-15T09:26:23;97441.41;;;5.05;74.39
70589;BME280;58152;49.202;18.744;2022-11-15T09:28:49;97436.13;;;5.09;74.62
70589;BME280;58152;49.202;18.744;2022-11-15T09:31:15;97435.06;;;5.17;74.11
70589;BME280;58152;49.202;18.744;2022-11-15T09:33:43;97435.81;;;5.22;74.25
70589;BME280;58152;49.202;18.744;2022-11-15T09:36:10;97432.25;;;5.27;74.05
70589;BME280;58152;49.202;18.744;2022-11-15T09:38:36;97433.75;;;5.38;73.90
70589;BME280;58152;49.202;18.744;2022-11-15T09:46:36;97429.41;;;5.72;74.27
70589;BME280;58152;49.202;18.744;2022-11-15T09:49:04;97426.47;;;5.86;73.79
70589;BME280;58152;49.202;18.744;2022-11-15T09:51:34;97419.94;;;6.05;73.74
70589;BME280;58152;49.202;18.744;2022-11-15T09:56:36;97414.19;;;6.56;72.98
70589;BME280;58152;49.202;18.744;2022-11-15T09:59:32;97409.31;;;6.75;73.13
70589;BME280;58152;49.202;18.744;2022-11-15T10:04:49;97395.81;;;6.91;72.87
70589;BME280;58152;49.202;18.744;2022-11-15T10:10:26;97388.56;;;7.00;72.35
70589;BME280;58152;49.202;18.744;2022-11-15T10:12:53;97389.19;;;7.08;71.77
70589;BME280;58152;49.202;18.744;2022-11-15T10:15:19;97389.13;;;7.10;71.53
70589;BME280;58152;49.202;18.744;2022-11-15T10:20:25;97376.66;;;7.20;71.60
70589;BME280;58152;49.202;18.744;2022-11-15T10:23:02;97368.72;;;7.23;71.31
70589;BME280;58152;49.202;18.744;2022-11-15T10:25:32;97377.03;;;7.35;70.98
70589;BME280;58152;49.202;18.744;2022-11-15T10:28:13;97372.34;;;7.45;71.06
70589;BME280;58152;49.202;18.744;2022-11-15T10:30:46;97369.81;;;7.44;71.34
70589;BME280;58152;49.202;18.744;2022-11-15T10:33:33;97370.09;;;7.34;71.46
70589;BME280;58152;49.202;18.744;2022-11-15T10:36:17;97369.63;;;7.22;71.95
70589;BME280;58152;49.202;18.744;2022-11-15T10:38:54;97351.75;;;7.09;71.91
70589;BME280;58152;49.202;18.744;2022-11-15T10:46:33;97346.38;;;6.86;72.20
70589;BME280;58152;49.202;18.744;2022-11-15T10:49:27;97350.03;;;6.80;72.54
70589;BME280;58152;49.202;18.744;2022-11-15T10:52:00;97343.28;;;6.73;72.62
70589;BME280;58152;49.202;18.744;2022-11-15T10:55:03;97339.91;;;6.71;72.46
70589;BME280;58152;49.202;18.744;2022-11-15T10:57:36;97327.94;;;6.64;72.72
70589;BME280;58152;49.202;18.744;2022-11-15T11:00:37;97315.94;;;6.58;72.53
70589;BME280;58152;49.202;18.744;2022-11-15T11:06:03;97296.91;;;6.55;73.23
70589;BME280;58152;49.202;18.744;2022-11-15T11:08:29;97307.28;;;6.58;73.10
70589;BME280;58152;49.202;18.744;2022-11-15T11:10:56;97297.69;;;6.58;73.12
70589;BME280;58152;49.202;18.744;2022-11-15T11:13:24;97287.25;;;6.60;73.02
70589;BME280;58152;49.202;18.744;2022-11-15T11:18:29;97286.28;;;6.62;73.24
70589;BME280;58152;49.202;18.744;2022-11-15T11:21:08;97275.00;;;6.62;73.02
70589;BME280;58152;49.202;18.744;2022-11-15T11:24:29;97272.34;;;6.63;73.75
70589;BME280;58152;49.202;18.744;2022-11-15T11:32:38;97261.53;;;6.76;74.07
70589;BME280;58152;49.202;18.744;2022-11-15T11:35:13;97246.72;;;6.76;73.82
70589;BME280;58152;49.202;18.744;2022-11-15T11:48:14;97229.09;;;6.84;74.23
70589;BME280;58152;49.202;18.744;2022-11-15T11:50:45;97229.03;;;6.86;74.29
70589;BME280;58152;49.202;18.744;2022-11-15T11:53:25;97222.06;;;6.86;74.26
70589;BME280;58152;49.202;18.744;2022-11-15T11:55:55;97212.53;;;6.85;74.33
70589;BME280;58152;49.202;18.744;2022-11-15T11:58:43;97204.63;;;6.88;73.82
70589;BME280;58152;49.202;18.744;2022-11-15T12:01:30;97215.75;;;6.94;74.01
70589;BME280;58152;49.202;18.744;2022-11-15T12:04:19;97211.38;;;6.94;73.86
70589;BME280;58152;49.202;18.744;2022-11-15T12:06:50;97204.34;;;6.96;74.12
70589;BME280;58152;49.202;18.744;2022-11-15T12:15:14;97192.88;;;7.02;74.29
70589;BME280;58152;49.202;18.744;2022-11-15T12:17:41;97192.81;;;7.03;73.99
70589;BME280;58152;49.202;18.744;2022-11-15T12:25:43;97175.09;;;7.13;73.76
70589;BME280;58152;49.202;18.744;2022-11-15T12:28:19;97174.19;;;7.14;73.81
70589;BME280;58152;49.202;18.744;2022-11-15T12:31:02;97157.69;;;7.13;73.79
70589;BME280;58152;49.202;18.744;2022-11-15T12:33:41;97166.16;;;7.20;73.69
70589;BME280;58152;49.202;18.744;2022-11-15T12:39:08;97147.84;;;7.22;73.38
70589;BME280;58152;49.202;18.744;2022-11-15T12:41:40;97149.28;;;7.30;73.66
70589;BME280;58152;49.202;18.744;2022-11-15T12:44:56;97152.63;;;7.34;73.55
70589;BME280;58152;49.202;18.744;2022-11-15T12:47:00;97147.28;;;7.37;73.76
70589;BME280;58152;49.202;18.744;2022-11-15T12:52:05;97127.16;;;7.41;73.44
70589;BME280;58152;49.202;18.744;2022-11-15T12:54:55;97130.28;;;7.50;72.68
70589;BME280;58152;49.202;18.744;2022-11-15T12:57:32;97126.75;;;7.51;72.91
70589;BME280;58152;49.202;18.744;2022-11-15T13:00:37;97130.16;;;7.53;73.46
70589;BME280;58152;49.202;18.744;2022-11-15T13:03:21;97123.19;;;7.54;72.91
70589;BME280;58152;49.202;18.744;2022-11-15T13:05:56;97116.19;;;7.54;72.74
70589;BME280;58152;49.202;18.744;2022-11-15T13:08:38;97122.28;;;7.55;72.42
70589;BME280;58152;49.202;18.744;2022-11-15T13:11:41;97119.31;;;7.64;73.13
70589;BME280;58152;49.202;18.744;2022-11-15T13:17:23;97116.59;;;7.67;72.40
70589;BME280;58152;49.202;18.744;2022-11-15T13:30:55;97100.69;;;7.73;72.74
70589;BME280;58152;49.202;18.744;2022-11-15T13:33:31;97098.94;;;7.74;72.53
70589;BME280;58152;49.202;18.744;2022-11-15T13:36:00;97099.00;;;7.72;72.86
70589;BME280;58152;49.202;18.744;2022-11-15T13:38:28;97099.78;;;7.74;73.07
70589;BME280;58152;49.202;18.744;2022-11-15T13:40:54;97094.69;;;7.71;73.52
70589;BME280;58152;49.202;18.744;2022-11-15T13:46:10;97092.75;;;7.76;73.63
70589;BME280;58152;49.202;18.744;2022-11-15T13:48:37;97092.81;;;7.75;73.60
70589;BME280;58152;49.202;18.744;2022-11-15T13:51:14;97084.09;;;7.74;73.61
70589;BME280;58152;49.202;18.744;2022-11-15T13:53:44;97077.19;;;7.73;73.44
70589;BME280;58152;49.202;18.744;2022-11-15T13:56:14;97069.50;;;7.70;73.41
70589;BME280;58152;49.202;18.744;2022-11-15T13:58:40;97076.22;;;7.76;74.21
70589;BME280;58152;49.202;18.744;2022-11-15T14:01:06;97074.47;;;7.76;73.98
70589;BME280;58152;49.202;18.744;2022-11-15T14:03:34;97082.13;;;7.81;73.61
70589;BME280;58152;49.202;18.744;2022-11-15T14:06:07;97077.69;;;7.83;74.01
70589;BME280;58152;49.202;18.744;2022-11-15T14:08:35;97068.22;;;7.80;73.31
70589;BME280;58152;49.202;18.744;2022-11-15T14:11:18;97056.94;;;7.80;73.25
70589;BME280;58152;49.202;18.744;2022-11-15T14:16:42;97060.44;;;7.79;73.77
70589;BME280;58152;49.202;18.744;2022-11-15T14:22:17;97070.75;;;7.82;73.91
70589;BME280;58152;49.202;18.744;2022-11-15T14:25:04;97053.47;;;7.79;73.16
70589;BME280;58152;49.202;18.744;2022-11-15T14:27:33;97052.56;;;7.80;73.28
70589;BME280;58152;49.202;18.744;2022-11-15T14:29:59;97047.44;;;7.77;73.98
70589;BME280;58152;49.202;18.744;2022-11-15T14:32:27;97044.06;;;7.75;73.93
70589;BME280;58152;49.202;18.744;2022-11-15T14:34:58;97037.91;;;7.76;73.92
70589;BME280;58152;49.202;18.744;2022-11-15T14:37:30;97045.63;;;7.79;73.93
70589;BME280;58152;49.202;18.744;2022-11-15T14:40:04;97029.22;;;7.76;73.83
70589;BME280;58152;49.202;18.744;2022-11-15T14:42:31;97029.09;;;7.79;73.63
70589;BME280;58152;49.202;18.744;2022-11-15T14:44:59;97018.81;;;7.74;73.41
70589;BME280;58152;49.202;18.744;2022-11-15T14:47:24;97012.47;;;7.81;73.73
70589;BME280;58152;49.202;18.744;2022-11-15T14:49:50;97016.59;;;7.87;74.12
70589;BME280;58152;49.202;18.744;2022-11-15T14:52:31;97024.22;;;7.92;74.18
70589;BME280;58152;49.202;18.744;2022-11-15T14:55:10;97016.47;;;7.90;74.17
70589;BME280;58152;49.202;18.744;2022-11-15T14:57:44;97024.41;;;7.87;73.94
70589;BME280;58152;49.202;18.744;2022-11-15T15:00:11;97023.72;;;7.83;73.88
70589;BME280;58152;49.202;18.744;2022-11-15T15:02:37;97019.34;;;7.84;74.20
70589;BME280;58152;49.202;18.744;2022-11-15T15:05:17;97022.00;;;7.82;73.80
70589;BME280;58152;49.202;18.744;2022-11-15T15:07:47;97019.53;;;7.79;74.55
70589;BME280;58152;49.202;18.744;2022-11-15T15:10:16;97005.75;;;7.74;74.27
70589;BME280;58152;49.202;18.744;2022-11-15T15:12:42;97013.50;;;7.77;74.13
70589;BME280;58152;49.202;18.744;2022-11-15T15:15:21;97005.75;;;7.74;74.33